Time;durP1;ratioP1;P1;durP2;ratioP2;P2;SDS_P1;SDS_P2;PMS_P1;PMS_P2;Temp;Humidity;BMP_temperature;BMP_pressure;BME280_temperature;BME280_humidity;BME280_pressure;Samples;Min_cycle;Max_cycle;Signal;HPM_P1;HPM_P2
2022/03/17 00:02:04;;;;;;;77.68;39.83;;;6.60;99.90;;;;;;5016928;28;20049;-85
2022/03/17 00:04:31;;;;;;;84.82;41.30;;;6.50;99.90;;;;;;5015674;28;20022;-85
2022/03/17 00:06:58;;;;;;;78.57;40.60;;;6.50;99.90;;;;;;5015441;28;20090;-85
2022/03/17 00:09:23;;;;;;;79.80;42.13;;;6.60;99.90;;;;;;5015238;28;20023;-85
2022/03/17 00:11:51;;;;;;;82.13;41.70;;;6.60;99.90;;;;;;5031715;28;20034;-84
2022/03/17 00:14:17;;;;;;;85.15;41.55;;;6.60;99.90;;;;;;5017119;28;20042;-84
2022/03/17 00:16:42;;;;;;;80.90;40.92;;;6.60;99.90;;;;;;5032920;28;20018;-85
2022/03/17 00:19:09;;;;;;;87.32;42.63;;;6.50;99.90;;;;;;5014851;28;20102;-86
2022/03/17 00:21:36;;;;;;;78.90;39.53;;;6.50;99.90;;;;;;4995868;28;20674;-86
2022/03/17 00:24:04;;;;;;;82.28;42.55;;;6.40;99.90;;;;;;4994200;28;20037;-84
2022/03/17 00:26:29;;;;;;;89.50;43.30;;;6.40;99.90;;;;;;5015619;28;20098;-85
2022/03/17 00:28:55;;;;;;;82.43;41.45;;;6.50;99.90;;;;;;5015703;28;20038;-83
2022/03/17 00:31:21;;;;;;;85.45;41.42;;;6.50;99.90;;;;;;5016497;28;20038;-84
2022/03/17 00:33:47;;;;;;;93.43;42.25;;;6.50;99.90;;;;;;5017924;28;20034;-83
2022/03/17 00:36:13;;;;;;;89.60;42.60;;;6.50;99.90;;;;;;5017782;28;20081;-84
2022/03/17 00:38:39;;;;;;;87.28;41.55;;;6.50;99.90;;;;;;5025312;23;20176;-85
2022/03/17 00:41:04;;;;;;;84.10;42.45;;;6.50;99.90;;;;;;5003970;28;20065;-85
2022/03/17 00:43:30;;;;;;;81.75;39.92;;;6.50;99.90;;;;;;4998998;28;20030;-84
2022/03/17 00:45:56;;;;;;;86.63;43.50;;;6.50;99.90;;;;;;5002553;28;20086;-85
2022/03/17 00:48:22;;;;;;;86.57;42.20;;;6.40;99.90;;;;;;5002823;28;20112;-84
2022/03/17 00:50:48;;;;;;;84.70;41.72;;;6.40;99.90;;;;;;5001521;28;20112;-84
2022/03/17 00:53:13;;;;;;;86.32;40.38;;;6.30;99.90;;;;;;5000176;28;20022;-85
2022/03/17 00:55:39;;;;;;;98.68;45.38;;;6.30;99.90;;;;;;5001173;28;20077;-84
2022/03/17 00:58:05;;;;;;;85.78;42.35;;;6.30;99.90;;;;;;5001285;28;20376;-85
2022/03/17 01:00:31;;;;;;;89.55;44.83;;;6.20;99.90;;;;;;5001976;28;20026;-86
2022/03/17 01:02:57;;;;;;;89.22;43.13;;;6.20;99.90;;;;;;5007458;28;20085;-85
2022/03/17 01:05:23;;;;;;;87.40;43.28;;;6.10;99.90;;;;;;5018526;28;20026;-84
2022/03/17 01:07:53;;;;;;;85.72;40.75;;;6.00;99.90;;;;;;5000943;28;20022;-83
2022/03/17 01:10:20;;;;;;;86.45;40.45;;;6.00;99.90;;;;;;5001758;28;20085;-84
2022/03/17 01:12:46;;;;;;;86.93;40.53;;;5.90;99.90;;;;;;5011675;28;20030;-81
2022/03/17 01:15:13;;;;;;;77.35;39.70;;;5.90;99.90;;;;;;5013419;28;20089;-81
2022/03/17 01:17:39;;;;;;;88.82;42.00;;;5.80;99.90;;;;;;5015549;28;20029;-83
2022/03/17 01:20:06;;;;;;;92.68;43.80;;;5.80;99.90;;;;;;5009749;28;20109;-85
2022/03/17 01:22:32;;;;;;;85.53;42.47;;;5.80;99.90;;;;;;5004571;28;20014;-83
2022/03/17 01:25:00;;;;;;;86.97;42.42;;;5.70;99.90;;;;;;5008897;28;20054;-84
2022/03/17 01:27:26;;;;;;;86.40;41.75;;;5.70;99.90;;;;;;5004988;28;20053;-83
2022/03/17 01:29:54;;;;;;;89.38;42.50;;;5.70;99.90;;;;;;5004350;28;20030;-86
2022/03/17 01:32:21;;;;;;;87.57;42.05;;;5.60;99.90;;;;;;5000960;28;20027;-84
2022/03/17 01:34:47;;;;;;;93.20;42.15;;;5.60;99.90;;;;;;5001017;28;20034;-83
2022/03/17 01:37:13;;;;;;;89.72;42.88;;;5.60;99.90;;;;;;5004497;28;20059;-81
2022/03/17 01:39:39;;;;;;;90.95;43.45;;;5.50;99.90;;;;;;5008756;28;20026;-82
2022/03/17 01:42:08;;;;;;;86.25;41.97;;;5.50;99.90;;;;;;5007351;28;20107;-82
2022/03/17 01:44:34;;;;;;;96.80;42.55;;;5.50;99.90;;;;;;5009553;28;20035;-84
2022/03/17 01:49:45;;;;;;;86.47;40.63;;;5.40;99.90;;;;;;5007101;28;20033;-83
2022/03/17 01:52:11;;;;;;;86.10;42.47;;;5.40;99.90;;;;;;5007484;28;20368;-85
2022/03/17 01:54:38;;;;;;;87.70;43.22;;;5.40;99.90;;;;;;5006450;28;20053;-83
2022/03/17 01:57:06;;;;;;;87.47;41.25;;;5.40;99.90;;;;;;5014439;28;20038;-83
2022/03/17 01:59:33;;;;;;;85.75;42.95;;;5.30;99.90;;;;;;5013332;28;20050;-83
2022/03/17 02:01:59;;;;;;;92.25;43.55;;;5.30;99.90;;;;;;5008211;28;20017;-82
2022/03/17 02:04:25;;;;;;;89.13;43.05;;;5.20;99.90;;;;;;5008118;28;20030;-86
2022/03/17 02:06:51;;;;;;;83.05;40.53;;;5.20;99.90;;;;;;5007564;28;20153;-85
2022/03/17 02:09:18;;;;;;;88.47;43.67;;;5.20;99.90;;;;;;5005735;28;20049;-82
2022/03/17 02:14:34;;;;;;;88.18;42.22;;;5.30;99.90;;;;;;5008851;28;20061;-83
2022/03/17 02:17:00;;;;;;;91.05;43.25;;;5.30;99.90;;;;;;4973297;28;20042;-84
2022/03/17 02:19:26;;;;;;;91.60;44.03;;;5.30;99.90;;;;;;5002301;28;20018;-85
2022/03/17 02:21:52;;;;;;;91.60;42.88;;;5.20;99.90;;;;;;5004453;28;20019;-85
2022/03/17 02:27:03;;;;;;;89.40;40.97;;;5.20;99.90;;;;;;5018595;28;20046;-82
2022/03/17 02:29:31;;;;;;;92.35;43.90;;;5.20;99.90;;;;;;5014729;28;20042;-82
2022/03/17 02:31:58;;;;;;;91.38;41.92;;;5.20;99.90;;;;;;5014062;28;20034;-82
2022/03/17 02:34:23;;;;;;;95.45;44.80;;;5.20;99.90;;;;;;5015868;28;20050;-83
2022/03/17 02:36:51;;;;;;;99.53;43.45;;;5.20;99.90;;;;;;5015927;28;20034;-82
2022/03/17 02:39:19;;;;;;;93.55;44.38;;;5.20;99.90;;;;;;5011710;28;20598;-83
2022/03/17 02:41:45;;;;;;;90.32;43.97;;;5.20;99.90;;;;;;5011029;28;20090;-84
2022/03/17 02:44:11;;;;;;;98.90;45.95;;;5.10;99.90;;;;;;5010215;28;20022;-83
2022/03/17 02:46:37;;;;;;;95.85;45.15;;;5.10;99.90;;;;;;5014568;28;20094;-81
2022/03/17 02:49:03;;;;;;;97.20;45.65;;;5.10;99.90;;;;;;5013510;28;20026;-85
2022/03/17 02:51:29;;;;;;;100.45;46.15;;;5.00;99.90;;;;;;5008107;28;20037;-83
2022/03/17 02:53:55;;;;;;;101.15;45.78;;;5.00;99.90;;;;;;4993290;28;20023;-84
2022/03/17 02:56:21;;;;;;;101.00;47.45;;;5.00;99.90;;;;;;5011066;28;20109;-83
2022/03/17 02:58:47;;;;;;;98.13;45.90;;;5.00;99.90;;;;;;4996223;28;20062;-83
2022/03/17 03:01:13;;;;;;;97.93;46.15;;;5.00;99.90;;;;;;5012187;28;20074;-82
2022/03/17 03:03:38;;;;;;;95.55;46.78;;;4.90;99.90;;;;;;5011225;28;20026;-85
2022/03/17 03:06:06;;;;;;;102.43;46.83;;;4.90;99.90;;;;;;5012513;28;20058;-83
2022/03/17 03:08:33;;;;;;;92.53;44.78;;;4.90;99.90;;;;;;5012053;28;20030;-84
2022/03/17 03:10:59;;;;;;;96.25;45.72;;;5.00;99.90;;;;;;5006802;28;20045;-85
2022/03/17 03:13:25;;;;;;;103.10;46.33;;;4.90;99.90;;;;;;5001828;28;20026;-83
2022/03/17 03:15:51;;;;;;;99.85;46.25;;;4.90;99.90;;;;;;4999565;28;20037;-83
2022/03/17 03:18:18;;;;;;;99.68;46.53;;;4.90;99.90;;;;;;4999687;28;20517;-85
2022/03/17 03:20:44;;;;;;;98.88;44.78;;;4.90;99.90;;;;;;4994675;28;20030;-84
2022/03/17 03:23:11;;;;;;;95.60;45.95;;;4.90;99.90;;;;;;4999788;28;20029;-84
2022/03/17 03:25:36;;;;;;;97.65;45.22;;;4.80;99.90;;;;;;5001834;28;20026;-83
2022/03/17 03:28:07;;;;;;;91.65;43.58;;;4.80;99.90;;;;;;5001419;28;20022;-85
2022/03/17 03:30:33;;;;;;;94.75;45.25;;;4.80;99.90;;;;;;5001246;28;20034;-83
2022/03/17 03:32:59;;;;;;;104.20;47.25;;;4.80;99.90;;;;;;5001389;28;20097;-84
2022/03/17 03:38:11;;;;;;;122.85;51.25;;;4.80;99.90;;;;;;5011577;28;20047;-82
2022/03/17 03:40:36;;;;;;;123.78;51.22;;;4.80;99.90;;;;;;5015364;28;20091;-84
2022/03/17 03:43:02;;;;;;;135.35;54.38;;;4.80;99.90;;;;;;5015365;28;20019;-82
2022/03/17 03:45:28;;;;;;;121.38;52.97;;;4.70;99.90;;;;;;5016187;28;20038;-84
2022/03/17 03:47:54;;;;;;;108.43;49.85;;;4.70;99.90;;;;;;5008588;28;20034;-83
2022/03/17 03:50:20;;;;;;;105.72;47.10;;;4.70;99.90;;;;;;5014738;28;20054;-84
2022/03/17 03:52:45;;;;;;;99.93;46.25;;;4.60;99.90;;;;;;5010080;28;20045;-85
2022/03/17 03:55:12;;;;;;;93.90;47.45;;;4.50;99.90;;;;;;5007388;28;20026;-84
2022/03/17 03:57:37;;;;;;;100.43;44.83;;;4.40;99.90;;;;;;5003743;28;20521;-83
2022/03/17 04:00:50;;;;;;;106.60;47.10;;;4.40;99.90;;;;;;5002332;28;20030;-85
2022/03/17 04:02:51;;;;;;;104.28;47.15;;;4.30;99.90;;;;;;4995594;28;20170;-85
2022/03/17 04:05:19;;;;;;;102.53;45.83;;;4.30;99.90;;;;;;4982029;28;20073;-84
2022/03/17 04:07:45;;;;;;;108.22;46.35;;;4.20;99.90;;;;;;4997789;28;20500;-84
2022/03/17 04:10:11;;;;;;;102.25;47.10;;;4.20;99.90;;;;;;4997276;28;20026;-84
2022/03/17 04:12:37;;;;;;;101.43;47.00;;;4.30;99.90;;;;;;4997142;28;20382;-84
2022/03/17 04:15:03;;;;;;;104.63;46.25;;;4.30;99.90;;;;;;4998234;28;20081;-84
2022/03/17 04:17:29;;;;;;;102.45;45.75;;;4.20;99.90;;;;;;4998148;28;20085;-84
2022/03/17 04:19:55;;;;;;;109.78;48.08;;;4.20;99.90;;;;;;4998212;28;20513;-86
2022/03/17 04:22:21;;;;;;;99.82;47.00;;;4.20;99.90;;;;;;5000939;28;20030;-83
2022/03/17 04:24:46;;;;;;;105.30;48.63;;;4.20;99.90;;;;;;4999446;28;20018;-85
2022/03/17 04:27:12;;;;;;;100.10;45.95;;;4.20;99.90;;;;;;4997916;28;20041;-84
2022/03/17 04:29:38;;;;;;;110.00;47.55;;;4.20;99.90;;;;;;5001492;28;20160;-84
2022/03/17 04:32:04;;;;;;;103.70;46.80;;;4.20;99.90;;;;;;5006048;28;20120;-84
2022/03/17 04:34:29;;;;;;;101.68;45.70;;;4.20;99.90;;;;;;5004794;28;20023;-84
2022/03/17 04:36:55;;;;;;;101.13;46.38;;;4.20;99.90;;;;;;5001375;28;20034;-85
2022/03/17 04:39:21;;;;;;;99.53;45.83;;;4.20;99.90;;;;;;5003427;28;20038;-84
2022/03/17 04:41:48;;;;;;;104.50;46.20;;;4.20;99.90;;;;;;5000667;28;20030;-85
2022/03/17 04:44:14;;;;;;;98.90;45.85;;;4.30;99.90;;;;;;5000664;28;20034;-82
2022/03/17 04:46:40;;;;;;;106.25;48.08;;;4.20;99.90;;;;;;4999362;28;20026;-85
2022/03/17 04:49:06;;;;;;;105.53;47.15;;;4.30;99.90;;;;;;4997508;28;20319;-87
2022/03/17 04:51:32;;;;;;;96.57;46.03;;;4.20;99.90;;;;;;4997908;28;20462;-84
2022/03/17 04:53:59;;;;;;;107.82;47.70;;;4.20;99.90;;;;;;4997903;28;20095;-86
2022/03/17 04:56:25;;;;;;;107.57;49.50;;;4.20;99.90;;;;;;4996424;28;20686;-84
2022/03/17 04:58:50;;;;;;;100.10;45.95;;;4.20;99.90;;;;;;4997303;28;20101;-84
2022/03/17 05:01:16;;;;;;;100.35;47.35;;;4.20;99.90;;;;;;5003759;28;20057;-81
2022/03/17 05:03:43;;;;;;;100.75;46.10;;;4.20;99.90;;;;;;5014620;28;20106;-86
2022/03/17 05:06:13;;;;;;;103.43;46.45;;;4.30;99.90;;;;;;4999547;28;20094;-85
2022/03/17 05:08:39;;;;;;;97.97;46.20;;;4.30;99.90;;;;;;4985071;28;20488;-84
2022/03/17 05:11:07;;;;;;;100.50;44.83;;;4.30;99.90;;;;;;4997177;28;20026;-83
2022/03/17 05:13:33;;;;;;;102.13;46.90;;;4.30;99.90;;;;;;4998642;28;20031;-84
2022/03/17 05:15:59;;;;;;;101.07;46.15;;;4.30;99.90;;;;;;5003300;28;20050;-83
2022/03/17 05:18:26;;;;;;;102.88;46.22;;;4.30;99.90;;;;;;5002238;28;20030;-84
2022/03/17 05:20:52;;;;;;;99.07;46.30;;;4.30;99.90;;;;;;5000630;28;20027;-85
2022/03/17 05:23:19;;;;;;;105.68;46.97;;;4.30;99.90;;;;;;4999199;28;20042;-84
2022/03/17 05:25:47;;;;;;;110.93;48.38;;;4.40;99.90;;;;;;4999895;28;20025;-84
2022/03/17 05:28:14;;;;;;;108.30;46.75;;;4.40;99.90;;;;;;4999133;28;20093;-84
2022/03/17 05:30:41;;;;;;;105.05;46.53;;;4.40;99.90;;;;;;4998681;28;20026;-84
2022/03/17 05:33:08;;;;;;;108.82;48.15;;;4.50;99.90;;;;;;5002309;28;20058;-85
2022/03/17 05:35:34;;;;;;;100.00;46.58;;;4.50;99.90;;;;;;5005053;28;20029;-84
2022/03/17 05:38:02;;;;;;;103.68;47.35;;;4.50;99.90;;;;;;5010321;28;20014;-83
2022/03/17 05:40:29;;;;;;;105.03;48.45;;;4.50;99.90;;;;;;5014516;28;20062;-84
2022/03/17 05:42:58;;;;;;;95.95;44.75;;;4.50;99.90;;;;;;5012591;28;20090;-84
2022/03/17 05:45:26;;;;;;;101.32;47.65;;;4.60;99.90;;;;;;5003606;28;20062;-85
2022/03/17 05:47:54;;;;;;;106.30;48.72;;;4.60;99.90;;;;;;5005855;28;20387;-86
2022/03/17 05:50:22;;;;;;;105.53;46.95;;;4.60;99.90;;;;;;5001304;28;20030;-85
2022/03/17 05:52:49;;;;;;;110.70;50.75;;;4.60;99.90;;;;;;5007324;28;20090;-85
2022/03/17 05:55:17;;;;;;;105.72;47.95;;;4.70;99.90;;;;;;5008997;28;20046;-85
2022/03/17 05:57:45;;;;;;;104.03;48.42;;;4.70;99.90;;;;;;5007969;28;20069;-84
2022/03/17 06:00:13;;;;;;;106.13;46.42;;;4.70;99.90;;;;;;5003502;28;20030;-86
2022/03/17 06:02:39;;;;;;;100.93;47.50;;;4.80;99.90;;;;;;5003638;28;20141;-85
2022/03/17 06:05:07;;;;;;;109.03;48.65;;;4.80;99.90;;;;;;5006503;28;20026;-86
2022/03/17 06:07:40;;;;;;;107.25;48.40;;;4.90;99.90;;;;;;5018626;28;20022;-85
2022/03/17 06:10:10;;;;;;;101.50;47.60;;;5.00;99.90;;;;;;5010414;28;20034;-87
2022/03/17 06:12:36;;;;;;;97.05;47.88;;;5.10;99.90;;;;;;4999379;28;20520;-84
2022/03/17 06:15:03;;;;;;;95.55;46.20;;;5.10;99.90;;;;;;4999383;28;20022;-83
2022/03/17 06:17:40;;;;;;;102.32;47.72;;;5.20;99.90;;;;;;5017285;28;20050;-84
2022/03/17 06:20:09;;;;;;;105.43;47.03;;;5.20;99.90;;;;;;5010932;28;20078;-84
2022/03/17 06:22:39;;;;;;;104.85;47.55;;;5.30;99.90;;;;;;5018525;28;20073;-83
2022/03/17 06:25:10;;;;;;;97.53;46.05;;;5.40;99.90;;;;;;5030342;28;20082;-85
2022/03/17 06:27:37;;;;;;;95.65;47.03;;;5.50;99.90;;;;;;5007032;28;20034;-82
2022/03/17 06:30:09;;;;;;;95.32;46.95;;;5.50;99.90;;;;;;5023125;28;20039;-85
2022/03/17 06:32:35;;;;;;;103.65;48.03;;;5.60;99.90;;;;;;5021390;28;20018;-84
2022/03/17 06:35:01;;;;;;;98.43;46.33;;;5.70;99.90;;;;;;5024903;28;20013;-83
2022/03/17 06:37:27;;;;;;;101.13;46.33;;;5.70;99.90;;;;;;5017854;28;20054;-84
2022/03/17 06:39:53;;;;;;;101.35;46.33;;;5.80;99.90;;;;;;5023954;23;20054;-82
2022/03/17 06:42:20;;;;;;;91.80;46.42;;;5.80;99.90;;;;;;4993533;28;20035;-84
2022/03/17 06:44:48;;;;;;;97.72;47.45;;;5.90;99.90;;;;;;4994159;28;20121;-84
2022/03/17 06:47:14;;;;;;;101.68;48.83;;;5.90;99.90;;;;;;4991375;28;20585;-82
2022/03/17 06:49:40;;;;;;;103.05;49.67;;;5.90;99.90;;;;;;4992090;28;20029;-83
2022/03/17 06:52:06;;;;;;;101.20;49.42;;;5.90;99.90;;;;;;4990862;28;20027;-84
2022/03/17 06:54:31;;;;;;;105.07;48.47;;;5.90;99.90;;;;;;5007063;28;20026;-83
2022/03/17 06:56:57;;;;;;;103.57;50.53;;;6.00;99.90;;;;;;4995964;28;20130;-86
2022/03/17 06:59:23;;;;;;;100.40;48.42;;;6.10;99.90;;;;;;4988286;28;20031;-85
2022/03/17 07:01:49;;;;;;;95.32;46.50;;;6.20;99.90;;;;;;4985870;28;20065;-86
2022/03/17 07:04:14;;;;;;;100.93;47.50;;;6.30;99.90;;;;;;4989178;28;20050;-84
2022/03/17 07:06:40;;;;;;;101.18;48.38;;;6.40;99.90;;;;;;4992945;28;20019;-84
2022/03/17 07:09:06;;;;;;;103.32;48.67;;;6.50;99.90;;;;;;4975405;28;20471;-84
2022/03/17 07:11:32;;;;;;;103.50;49.38;;;6.60;99.90;;;;;;4991621;28;20119;-85
2022/03/17 07:13:58;;;;;;;97.57;49.08;;;6.70;99.90;;;;;;5008480;28;20055;-86
2022/03/17 07:16:24;;;;;;;98.05;49.40;;;6.80;99.90;;;;;;4988638;28;20027;-85
2022/03/17 07:18:50;;;;;;;107.28;49.40;;;6.90;99.90;;;;;;4987181;28;20483;-86
2022/03/17 07:21:16;;;;;;;99.63;47.47;;;6.90;99.90;;;;;;5001892;28;20027;-86
2022/03/17 07:23:42;;;;;;;107.25;49.67;;;7.00;99.90;;;;;;4986096;28;20162;-87
2022/03/17 07:26:09;;;;;;;101.70;49.25;;;7.10;99.90;;;;;;4989980;28;20045;-87
2022/03/17 07:28:34;;;;;;;104.85;49.60;;;7.10;99.90;;;;;;5000569;28;20473;-86
2022/03/17 07:31:00;;;;;;;103.85;50.90;;;7.10;99.90;;;;;;4985584;28;20027;-85
2022/03/17 07:33:26;;;;;;;100.18;50.08;;;7.10;99.90;;;;;;4994174;28;20039;-87
2022/03/17 07:35:53;;;;;;;103.15;49.33;;;7.20;99.90;;;;;;4989493;28;20027;-86
2022/03/17 07:38:19;;;;;;;125.75;50.78;;;7.30;99.90;;;;;;4987689;28;20033;-87
2022/03/17 07:40:46;;;;;;;107.82;48.78;;;7.50;99.90;;;;;;4971867;28;20038;-86
2022/03/17 07:43:12;;;;;;;102.40;49.88;;;7.50;99.90;;;;;;5001414;28;20027;-87
2022/03/17 07:45:55;;;;;;;102.25;50.15;;;7.60;99.90;;;;;;4997400;28;20526;-87
2022/03/17 07:48:33;;;;;;;108.50;50.28;;;7.60;99.90;;;;;;4989402;28;20042;-87
2022/03/17 07:51:11;;;;;;;102.07;50.15;;;7.70;99.90;;;;;;5001280;28;20098;-87
2022/03/17 07:53:38;;;;;;;106.57;49.67;;;7.70;99.90;;;;;;4987455;28;20062;-85
2022/03/17 07:56:06;;;;;;;98.82;50.25;;;7.80;99.90;;;;;;4995964;28;20035;-85
2022/03/17 07:58:33;;;;;;;103.65;51.40;;;7.90;99.90;;;;;;4989926;28;20086;-86
2022/03/17 08:01:00;;;;;;;116.35;51.70;;;7.90;99.90;;;;;;4991104;28;20070;-86
2022/03/17 08:03:26;;;;;;;109.18;52.40;;;7.70;99.90;;;;;;4989413;28;20022;-85
2022/03/17 08:05:52;;;;;;;106.82;51.60;;;7.70;99.90;;;;;;5003927;28;20046;-86
2022/03/17 08:08:19;;;;;;;97.78;49.63;;;8.00;99.90;;;;;;4992324;28;20047;-86
2022/03/17 08:10:45;;;;;;;103.88;50.45;;;8.20;99.90;;;;;;4996755;28;20011;-85
2022/03/17 08:13:12;;;;;;;105.35;51.63;;;8.40;99.90;;;;;;4990040;28;20027;-85
2022/03/17 08:15:39;;;;;;;97.43;50.95;;;8.40;99.90;;;;;;4993396;28;20038;-85
2022/03/17 08:18:06;;;;;;;102.00;50.70;;;8.50;99.90;;;;;;4991163;28;20031;-86
2022/03/17 08:20:35;;;;;;;105.20;50.53;;;8.70;99.90;;;;;;4992732;28;20058;-86
2022/03/17 08:23:01;;;;;;;105.25;51.13;;;8.80;99.90;;;;;;4993135;28;20038;-87
2022/03/17 08:25:27;;;;;;;104.75;51.85;;;8.80;99.90;;;;;;4996170;28;20019;-85
2022/03/17 08:27:55;;;;;;;100.82;51.13;;;8.90;99.90;;;;;;4987864;28;20026;-87
2022/03/17 08:30:21;;;;;;;93.25;50.28;;;9.10;99.90;;;;;;4988513;28;20023;-87
2022/03/17 08:32:48;;;;;;;102.57;51.15;;;9.30;99.90;;;;;;4990941;28;20042;-86
2022/03/17 08:35:14;;;;;;;100.90;50.00;;;9.50;99.90;;;;;;4988535;28;20046;-86
2022/03/17 08:37:42;;;;;;;94.90;48.83;;;9.80;99.90;;;;;;4987043;28;20133;-85
2022/03/17 08:40:10;;;;;;;93.40;50.10;;;9.90;99.90;;;;;;4985975;28;20022;-85
2022/03/17 08:42:36;;;;;;;94.80;50.08;;;9.80;99.90;;;;;;4988414;28;20094;-85
2022/03/17 08:49:18;;;;;;;90.95;49.67;;;9.80;99.90;;;;;;4968453;28;20104;-85
2022/03/17 08:50:33;;;;;;;98.03;50.60;;;10.10;99.90;;;;;;4991682;28;20035;-85
2022/03/17 08:52:58;;;;;;;96.18;52.40;;;10.20;99.90;;;;;;4977735;28;20502;-85
2022/03/17 08:55:25;;;;;;;94.90;51.50;;;10.10;99.90;;;;;;4977843;28;20126;-85
2022/03/17 08:57:52;;;;;;;103.97;53.00;;;10.20;99.90;;;;;;4986615;28;20114;-85
2022/03/17 09:00:18;;;;;;;120.22;49.90;;;10.10;99.90;;;;;;4992284;28;20031;-87
2022/03/17 09:02:46;;;;;;;113.00;51.00;;;10.20;99.90;;;;;;4991984;28;20116;-84
2022/03/17 09:05:13;;;;;;;103.05;51.53;;;10.30;99.90;;;;;;4988058;28;20043;-85
2022/03/17 09:07:39;;;;;;;94.65;51.28;;;10.20;99.90;;;;;;4990263;28;20019;-85
2022/03/17 09:10:06;;;;;;;93.25;50.75;;;10.30;99.90;;;;;;4986686;28;20069;-86
2022/03/17 09:12:33;;;;;;;91.90;50.22;;;10.60;99.90;;;;;;4989904;28;20030;-85
2022/03/17 09:14:59;;;;;;;94.47;48.88;;;10.70;99.90;;;;;;4989122;28;20037;-86
2022/03/17 09:17:26;;;;;;;98.45;51.92;;;10.80;99.90;;;;;;4995626;28;20027;-86
2022/03/17 09:19:52;;;;;;;91.93;49.70;;;11.00;99.90;;;;;;5000232;28;20049;-84
2022/03/17 09:22:18;;;;;;;91.63;48.90;;;11.00;99.90;;;;;;4982737;28;20015;-85
2022/03/17 09:24:48;;;;;;;89.88;48.30;;;11.30;99.90;;;;;;4995255;28;20038;-86
2022/03/17 09:27:15;;;;;;;84.78;47.35;;;11.50;99.90;;;;;;4998669;28;20065;-84
2022/03/17 09:29:41;;;;;;;96.97;49.47;;;11.60;99.90;;;;;;5001223;28;20011;-84
2022/03/17 09:32:09;;;;;;;85.45;49.63;;;11.80;99.90;;;;;;5000406;28;20022;-86
2022/03/17 09:34:36;;;;;;;94.28;48.78;;;12.00;99.90;;;;;;4994560;28;20033;-85
2022/03/17 09:37:02;;;;;;;82.00;46.25;;;12.20;99.90;;;;;;4998315;28;20026;-85
2022/03/17 09:39:47;;;;;;;86.90;47.65;;;12.60;99.90;;;;;;5014232;28;20034;-85
2022/03/17 09:42:18;;;;;;;92.15;47.50;;;13.00;99.90;;;;;;4996854;28;20064;-85
2022/03/17 09:44:46;;;;;;;83.95;45.50;;;13.30;99.90;;;;;;4998250;28;20094;-85
2022/03/17 09:47:18;;;;;;;88.20;47.45;;;13.60;99.90;;;;;;4995277;28;20027;-86
2022/03/17 09:49:46;;;;;;;78.97;45.83;;;13.70;99.90;;;;;;4994752;28;20037;-86
2022/03/17 09:52:14;;;;;;;81.13;46.35;;;13.50;99.90;;;;;;4994551;28;20026;-86
2022/03/17 09:54:41;;;;;;;85.60;45.80;;;13.30;99.90;;;;;;4983245;28;20494;-86
2022/03/17 09:57:07;;;;;;;81.07;46.60;;;13.30;99.90;;;;;;4990152;28;20058;-85
2022/03/17 09:59:33;;;;;;;73.43;44.33;;;13.30;99.90;;;;;;4990304;28;20031;-87
2022/03/17 10:02:00;;;;;;;80.15;44.90;;;13.40;99.90;;;;;;4988025;28;20015;-86
2022/03/17 10:04:35;;;;;;;83.32;44.45;;;13.60;99.90;;;;;;4991334;28;20022;-86
2022/03/17 10:07:01;;;;;;;76.68;41.55;;;13.70;99.90;;;;;;4996719;28;20035;-88
2022/03/17 10:09:30;;;;;;;73.80;43.05;;;13.60;99.90;;;;;;4993907;28;20035;-87
2022/03/17 10:12:11;;;;;;;75.05;42.55;;;13.80;99.70;;;;;;4999399;28;20061;-89
2022/03/17 10:14:47;;;;;;;66.30;41.25;;;14.20;99.10;;;;;;4999618;28;20042;-87
2022/03/17 10:17:39;;;;;;;68.80;42.30;;;14.30;98.70;;;;;;4995700;28;20080;-86
2022/03/17 10:20:25;;;;;;;73.78;42.13;;;14.40;98.50;;;;;;5000094;28;20030;-87
2022/03/17 10:22:56;;;;;;;77.65;43.42;;;14.50;98.10;;;;;;4997286;28;20026;-85
2022/03/17 10:25:24;;;;;;;78.85;43.75;;;14.70;97.90;;;;;;4994693;28;20086;-87
2022/03/17 10:27:54;;;;;;;63.75;40.75;;;14.70;97.60;;;;;;4995399;28;20035;-88
2022/03/17 10:30:36;;;;;;;68.18;38.75;;;14.80;97.40;;;;;;4986891;28;20011;-88
2022/03/17 10:33:15;;;;;;;60.40;36.75;;;14.70;96.80;;;;;;4995209;28;20034;-85
2022/03/17 10:35:46;;;;;;;64.18;38.40;;;15.00;96.50;;;;;;4999356;28;20031;-88
2022/03/17 10:38:15;;;;;;;57.33;36.65;;;15.40;95.40;;;;;;4991425;28;20060;-88
2022/03/17 10:40:41;;;;;;;64.40;35.92;;;15.60;94.80;;;;;;4991764;28;20027;-88
2022/03/17 10:43:18;;;;;;;65.30;34.47;;;16.00;93.80;;;;;;4991381;28;20019;-87
2022/03/17 10:45:47;;;;;;;52.35;30.58;;;16.60;91.80;;;;;;5002425;28;20479;-87
2022/03/17 10:48:13;;;;;;;55.85;32.13;;;16.70;89.30;;;;;;5006775;28;20090;-86
2022/03/17 10:50:43;;;;;;;53.78;30.52;;;16.90;87.90;;;;;;4995088;28;20019;-86
2022/03/17 10:53:10;;;;;;;48.67;28.70;;;17.30;85.80;;;;;;4970125;28;20034;-87
2022/03/17 10:55:37;;;;;;;53.78;29.02;;;17.40;83.90;;;;;;4971570;28;20023;-87
2022/03/17 10:58:17;;;;;;;47.00;28.40;;;17.10;82.50;;;;;;5007855;28;20042;-88
2022/03/17 11:00:56;;;;;;;44.50;27.70;;;16.80;81.60;;;;;;5006565;28;20061;-88
2022/03/17 11:03:23;;;;;;;50.40;27.70;;;16.70;82.00;;;;;;4987990;28;20046;-88
2022/03/17 11:05:53;;;;;;;44.55;26.23;;;17.00;80.80;;;;;;4989631;28;20099;-88
2022/03/17 11:08:20;;;;;;;46.17;26.33;;;17.20;78.30;;;;;;4996589;28;20062;-87
2022/03/17 11:10:47;;;;;;;43.97;26.55;;;17.70;77.30;;;;;;4983534;28;20034;-87
2022/03/17 11:13:13;;;;;;;42.17;25.15;;;17.60;74.80;;;;;;4985458;28;20031;-86
2022/03/17 11:15:48;;;;;;;38.45;24.20;;;17.60;74.80;;;;;;4979266;28;20030;-86
2022/03/17 11:18:18;;;;;;;40.10;24.30;;;18.10;74.00;;;;;;4987038;28;20082;-87
2022/03/17 11:20:44;;;;;;;44.00;23.77;;;18.70;70.50;;;;;;4985000;28;20026;-88
2022/03/17 11:23:18;;;;;;;35.47;22.27;;;19.60;68.80;;;;;;5003977;28;20037;-87
2022/03/17 11:25:56;;;;;;;36.28;22.70;;;20.30;65.00;;;;;;4991447;28;20027;-87
2022/03/17 11:28:35;;;;;;;37.85;22.58;;;20.60;62.90;;;;;;4996005;28;20014;-86
2022/03/17 11:31:04;;;;;;;37.42;21.20;;;21.00;61.90;;;;;;4993322;28;20046;-84
2022/03/17 11:33:37;;;;;;;38.60;23.58;;;21.70;59.90;;;;;;5006743;28;20073;-88
2022/03/17 11:36:09;;;;;;;46.83;29.27;;;21.70;60.30;;;;;;4993338;28;20042;-85
2022/03/17 11:38:37;;;;;;;41.75;26.15;;;21.70;61.70;;;;;;4996809;28;20035;-86
2022/03/17 11:41:14;;;;;;;35.20;24.23;;;22.80;61.40;;;;;;4990353;28;20038;-87
2022/03/17 11:43:40;;;;;;;34.90;23.55;;;24.00;59.60;;;;;;4988435;28;20026;-88
2022/03/17 11:46:17;;;;;;;32.95;22.45;;;24.40;58.50;;;;;;4987881;28;20026;-87
2022/03/17 11:48:44;;;;;;;29.65;20.40;;;24.40;56.50;;;;;;4987396;28;20094;-86
2022/03/17 11:51:14;;;;;;;31.30;19.42;;;24.50;54.70;;;;;;4987118;28;20031;-86
2022/03/17 11:53:52;;;;;;;33.35;19.55;;;24.90;52.60;;;;;;4989416;28;20046;-87
2022/03/17 11:56:32;;;;;;;29.65;20.00;;;24.00;52.40;;;;;;4992952;28;20062;-86
2022/03/17 11:58:58;;;;;;;29.35;17.63;;;24.30;51.80;;;;;;4997398;28;20045;-87
2022/03/17 12:01:34;;;;;;;32.95;18.48;;;24.70;50.70;;;;;;4996167;28;20058;-87
2022/03/17 12:04:03;;;;;;;29.60;17.33;;;25.00;50.10;;;;;;5007413;28;20043;-87
2022/03/17 12:06:34;;;;;;;29.33;17.85;;;25.40;49.80;;;;;;4992795;28;20121;-88
2022/03/17 12:09:05;;;;;;;26.58;16.58;;;25.10;49.10;;;;;;4991858;28;20086;-87
2022/03/17 12:11:31;;;;;;;24.55;17.33;;;25.10;47.50;;;;;;5005497;28;20058;-87
2022/03/17 12:14:18;;;;;;;28.42;17.60;;;25.40;47.40;;;;;;4997543;28;20011;-87
2022/03/17 12:16:51;;;;;;;23.83;17.35;;;26.20;46.70;;;;;;5001971;28;20034;-88
2022/03/17 12:19:38;;;;;;;24.30;16.48;;;26.80;46.80;;;;;;5007734;28;20049;-89
2022/03/17 12:22:06;;;;;;;21.10;15.65;;;26.80;45.10;;;;;;4984038;28;20095;-87
2022/03/17 12:24:47;;;;;;;23.90;15.40;;;27.10;45.30;;;;;;4981002;28;20856;-87
2022/03/17 12:27:18;;;;;;;26.33;16.88;;;26.60;44.20;;;;;;4984058;28;20063;-87
2022/03/17 12:29:48;;;;;;;23.13;15.65;;;26.30;44.60;;;;;;4982954;28;20037;-86
2022/03/17 12:32:17;;;;;;;25.05;15.70;;;26.40;43.60;;;;;;4985151;28;20033;-86
2022/03/17 12:34:50;;;;;;;22.58;15.43;;;26.30;43.70;;;;;;4982977;28;20134;-87
2022/03/17 12:37:18;;;;;;;24.57;16.47;;;25.30;43.40;;;;;;4982828;28;20030;-86
2022/03/17 12:39:49;;;;;;;23.77;16.80;;;25.20;44.10;;;;;;5029985;22;20068;-86
2022/03/17 12:42:26;;;;;;;22.08;15.98;;;25.40;43.60;;;;;;5015728;28;20037;-88
2022/03/17 12:44:52;;;;;;;24.90;16.90;;;25.80;42.40;;;;;;5034773;28;20193;-84
2022/03/17 12:47:19;;;;;;;24.98;17.15;;;26.20;42.30;;;;;;5036279;28;20027;-84
2022/03/17 12:49:45;;;;;;;26.23;17.17;;;26.80;41.90;;;;;;5036398;28;20049;-86